Time;durP1;ratioP1;P1;durP2;ratioP2;P2;SDS_P1;SDS_P2;PMS_P1;PMS_P2;Temp;Humidity;BMP_temperature;BMP_pressure;BME280_temperature;BME280_humidity;BME280_pressure;Samples;Min_cycle;Max_cycle;Signal;HPM_P1;HPM_P2
2022/06/09 00:00:47;;;;;;;11.13;9.32;;;;;;;16.18;100.00;99028.22;6215350;23;20011;-82
2022/06/09 00:03:17;;;;;;;10.27;9.23;;;;;;;16.15;100.00;99030.00;6216057;23;20616;-82
2022/06/09 00:05:43;;;;;;;10.85;9.50;;;;;;;16.12;100.00;99030.25;6242990;23;20091;-78
2022/06/09 00:08:09;;;;;;;11.27;9.55;;;;;;;16.10;100.00;99027.16;6242789;23;20134;-78
2022/06/09 00:10:39;;;;;;;11.00;9.93;;;;;;;16.06;100.00;99026.63;6242093;23;20458;-78
2022/06/09 00:13:05;;;;;;;10.30;9.30;;;;;;;16.05;100.00;99025.88;6241645;23;20008;-78
2022/06/09 00:15:30;;;;;;;10.88;9.88;;;;;;;16.08;100.00;99024.88;6242160;23;20016;-78
2022/06/09 00:17:56;;;;;;;10.55;9.18;;;;;;;16.07;100.00;99028.16;6242992;23;20010;-78
2022/06/09 00:20:22;;;;;;;10.82;9.75;;;;;;;16.07;100.00;99020.53;6241126;23;20008;-78
2022/06/09 00:22:47;;;;;;;10.90;9.80;;;;;;;16.02;100.00;99012.88;6243250;23;20016;-78
2022/06/09 00:25:13;;;;;;;11.98;9.20;;;;;;;15.90;100.00;98990.91;6242409;23;20011;-78
2022/06/09 00:27:40;;;;;;;9.75;8.82;;;;;;;15.96;100.00;99011.31;6241801;23;20036;-78
2022/06/09 00:30:07;;;;;;;11.60;10.55;;;;;;;15.93;100.00;99003.94;6216146;23;20430;-78
2022/06/09 00:32:34;;;;;;;10.88;9.88;;;;;;;15.86;100.00;99014.28;6241651;23;20097;-78
2022/06/09 00:34:59;;;;;;;11.30;10.10;;;;;;;15.81;100.00;99005.88;6242881;23;20012;-78
2022/06/09 00:37:25;;;;;;;12.40;10.98;;;;;;;15.83;100.00;99003.34;6214817;23;20012;-78
2022/06/09 00:39:50;;;;;;;11.88;10.65;;;;;;;15.86;100.00;99005.91;6242357;23;20019;-78
2022/06/09 00:42:16;;;;;;;12.07;11.00;;;;;;;15.91;100.00;98993.22;6242417;23;20001;-78
2022/06/09 00:44:42;;;;;;;14.27;11.40;;;;;;;15.97;100.00;99001.66;6242057;23;20016;-78
2022/06/09 00:47:32;;;;;;;11.90;10.73;;;;;;;15.99;100.00;99007.50;6215368;23;20042;-78
2022/06/09 00:50:05;;;;;;;12.82;11.52;;;;;;;16.00;100.00;99006.25;6242998;23;20016;-78
2022/06/09 00:52:34;;;;;;;12.47;11.17;;;;;;;15.94;100.00;98992.22;6214870;23;20023;-78
2022/06/09 00:55:04;;;;;;;12.80;11.18;;;;;;;16.05;100.00;98997.16;6242011;23;20446;-78
2022/06/09 00:57:35;;;;;;;12.77;10.65;;;;;;;16.11;100.00;99001.50;6215386;23;20013;-78
2022/06/09 01:00:07;;;;;;;11.10;10.00;;;;;;;16.10;100.00;98999.94;6215150;23;20065;-78
2022/06/09 01:02:33;;;;;;;11.65;9.68;;;;;;;16.14;100.00;98994.13;6152358;23;20017;-87
2022/06/09 01:05:02;;;;;;;11.98;10.57;;;;;;;16.14;100.00;98994.88;6153905;23;20524;-88
2022/06/09 01:07:33;;;;;;;13.45;10.02;;;;;;;16.14;100.00;98991.31;6130461;23;20020;-86
2022/06/09 01:09:59;;;;;;;13.13;10.68;;;;;;;16.18;100.00;98989.06;6178401;23;20028;-87
2022/06/09 01:12:36;;;;;;;11.30;9.88;;;;;;;16.23;100.00;98993.94;6154571;23;20064;-87
2022/06/09 01:15:07;;;;;;;14.20;9.98;;;;;;;16.23;100.00;98991.13;6179821;23;20087;-87
2022/06/09 01:17:45;;;;;;;10.93;9.75;;;;;;;16.22;100.00;98984.75;6178759;23;20013;-88
2022/06/09 01:20:26;;;;;;;11.52;9.70;;;;;;;16.30;100.00;98985.06;6154006;23;20009;-83
2022/06/09 01:22:57;;;;;;;11.23;9.77;;;;;;;16.35;100.00;98984.31;6177640;23;20017;-83
2022/06/09 01:25:29;;;;;;;11.48;9.38;;;;;;;16.36;100.00;98976.69;6178400;23;20013;-83
2022/06/09 01:28:28;;;;;;;11.10;10.00;;;;;;;16.22;100.00;98978.41;6181515;23;20076;-84
2022/06/09 01:31:01;;;;;;;12.25;10.07;;;;;;;16.20;100.00;98976.13;6180438;23;20048;-83
2022/06/09 01:34:09;;;;;;;10.97;9.97;;;;;;;16.20;100.00;98975.34;6179659;23;20017;-83
2022/06/09 01:36:41;;;;;;;11.20;10.02;;;;;;;16.17;100.00;98976.34;6142689;23;20264;-83
2022/06/09 01:39:09;;;;;;;11.85;10.57;;;;;;;16.13;100.00;98968.19;6207149;23;20518;-83
2022/06/09 01:41:35;;;;;;;13.23;9.77;;;;;;;16.17;100.00;98965.16;6156555;23;20637;-83
2022/06/09 01:44:01;;;;;;;10.52;9.50;;;;;;;16.19;100.00;98973.81;6157698;23;20093;-83
2022/06/09 01:46:32;;;;;;;10.77;9.77;;;;;;;16.18;100.00;98966.69;6157563;23;20175;-83
2022/06/09 01:49:02;;;;;;;11.68;9.88;;;;;;;16.19;100.00;98979.41;6156790;23;20016;-83
2022/06/09 01:51:32;;;;;;;10.55;9.60;;;;;;;16.17;100.00;98965.94;6157467;23;20009;-83
2022/06/09 01:54:02;;;;;;;11.07;10.07;;;;;;;16.16;100.00;98963.63;6181266;23;20009;-83
2022/06/09 01:56:30;;;;;;;10.95;10.00;;;;;;;16.17;100.00;98965.16;6155359;23;20056;-83
2022/06/09 01:59:01;;;;;;;12.43;10.73;;;;;;;16.14;100.00;98966.91;6181648;23;20040;-82
2022/06/09 02:01:31;;;;;;;11.45;10.35;;;;;;;16.10;100.00;98960.03;6154976;23;20013;-82
2022/06/09 02:03:59;;;;;;;13.68;10.18;;;;;;;16.14;100.00;98961.31;6179205;23;20021;-83
2022/06/09 02:06:26;;;;;;;11.10;9.50;;;;;;;16.11;100.00;98967.16;6204816;23;20092;-83
2022/06/09 02:08:52;;;;;;;10.25;9.15;;;;;;;16.15;100.00;98946.06;6155098;23;20067;-83
2022/06/09 02:11:18;;;;;;;11.35;10.15;;;;;;;16.20;100.00;98964.94;6156772;23;20080;-83
2022/06/09 02:13:48;;;;;;;11.35;10.23;;;;;;;16.21;100.00;98943.31;6155295;23;20447;-83
2022/06/09 02:16:17;;;;;;;11.65;10.30;;;;;;;16.26;100.00;98953.75;6206932;23;20382;-83
2022/06/09 02:18:45;;;;;;;11.00;10.00;;;;;;;16.22;100.00;98950.41;6180148;23;20009;-88
2022/06/09 02:21:27;;;;;;;12.40;10.38;;;;;;;16.22;100.00;98964.41;6180323;23;20005;-89
2022/06/09 02:23:53;;;;;;;11.75;10.18;;;;;;;16.25;100.00;98958.59;6180179;23;20115;-88
2022/06/09 02:26:19;;;;;;;10.82;9.82;;;;;;;16.28;100.00;98952.00;6204287;23;20490;-87
2022/06/09 02:28:44;;;;;;;14.32;9.80;;;;;;;16.31;100.00;98950.22;6180616;23;20005;-88
2022/06/09 02:31:10;;;;;;;11.35;8.95;;;;;;;16.29;100.00;98944.38;6131295;23;20055;-88
2022/06/09 02:33:36;;;;;;;11.30;10.02;;;;;;;16.33;100.00;98951.25;6180171;23;20535;-88
2022/06/09 02:36:02;;;;;;;10.88;9.70;;;;;;;16.34;100.00;98952.00;6178604;23;20020;-88
2022/06/09 02:38:28;;;;;;;12.13;9.93;;;;;;;16.36;100.00;98943.13;6155486;23;20430;-88
2022/06/09 02:40:56;;;;;;;12.70;9.48;;;;;;;16.38;100.00;98940.59;6179366;23;20071;-87
2022/06/09 02:43:23;;;;;;;10.45;9.45;;;;;;;16.36;100.00;98937.50;6181900;23;20394;-89
2022/06/09 02:45:48;;;;;;;9.90;8.93;;;;;;;16.37;100.00;98944.66;6181170;23;20005;-89
2022/06/09 02:48:14;;;;;;;10.13;9.20;;;;;;;16.38;100.00;98948.97;6179961;23;20019;-88
2022/06/09 02:50:40;;;;;;;10.05;9.05;;;;;;;16.38;100.00;98944.13;6179849;23;20052;-88
2022/06/09 02:53:07;;;;;;;9.32;8.43;;;;;;;16.42;100.00;98955.09;6205393;23;20040;-89
2022/06/09 02:55:33;;;;;;;11.32;9.52;;;;;;;16.41;100.00;98961.97;6205328;23;20003;-83
2022/06/09 02:57:59;;;;;;;9.57;8.57;;;;;;;16.32;100.00;98952.50;6130331;23;20046;-83
2022/06/09 03:00:24;;;;;;;11.48;9.20;;;;;;;16.34;100.00;98963.19;6155742;23;20021;-82
2022/06/09 03:02:53;;;;;;;12.27;9.18;;;;;;;16.38;100.00;98963.72;6154383;23;20443;-82
2022/06/09 03:05:19;;;;;;;10.55;9.25;;;;;;;16.36;100.00;98960.66;6155830;23;20013;-82
2022/06/09 03:07:45;;;;;;;11.05;9.13;;;;;;;16.30;100.00;98955.03;6154990;23;20017;-82
2022/06/09 03:10:10;;;;;;;9.60;8.77;;;;;;;16.28;100.00;98959.63;6178148;23;20024;-82
2022/06/09 03:12:36;;;;;;;11.98;9.10;;;;;;;16.21;100.00;98954.50;6156050;23;20016;-82
2022/06/09 03:15:02;;;;;;;10.13;9.15;;;;;;;16.17;100.00;98963.13;6179381;23;20019;-82
2022/06/09 03:17:27;;;;;;;10.27;9.13;;;;;;;16.07;100.00;98949.84;6155883;23;20013;-82
2022/06/09 03:19:53;;;;;;;12.80;9.77;;;;;;;16.13;100.00;98950.66;6205506;23;20104;-82
2022/06/09 03:22:19;;;;;;;11.45;10.40;;;;;;;16.17;100.00;98953.97;6204155;23;20518;-82
2022/06/09 03:24:44;;;;;;;10.63;9.63;;;;;;;16.20;100.00;98958.56;6154825;23;20024;-82
2022/06/09 03:27:10;;;;;;;11.32;10.15;;;;;;;16.18;100.00;98949.88;6179477;23;20024;-82
2022/06/09 03:29:36;;;;;;;12.43;10.13;;;;;;;16.14;100.00;98944.53;6179352;23;20079;-83
2022/06/09 03:32:02;;;;;;;12.55;10.48;;;;;;;16.20;100.00;98948.13;6180460;23;20020;-83
2022/06/09 03:34:27;;;;;;;11.50;9.80;;;;;;;16.25;100.00;98955.03;6154732;23;20009;-88
2022/06/09 03:36:53;;;;;;;12.23;9.60;;;;;;;16.27;100.00;98953.25;6203644;23;20009;-88
2022/06/09 03:39:18;;;;;;;11.43;10.18;;;;;;;16.32;100.00;98955.31;6179415;23;20316;-88
2022/06/09 03:41:44;;;;;;;10.30;9.40;;;;;;;16.34;100.00;98960.41;6205209;23;20038;-87
2022/06/09 03:44:09;;;;;;;12.05;9.32;;;;;;;16.37;100.00;98965.00;6130486;23;20514;-88
2022/06/09 03:46:35;;;;;;;10.23;9.30;;;;;;;16.44;100.00;98961.72;6131661;23;20017;-88
2022/06/09 03:49:02;;;;;;;13.80;9.77;;;;;;;16.38;100.00;98963.72;6179078;23;20019;-88
2022/06/09 03:51:27;;;;;;;9.50;8.65;;;;;;;16.42;100.00;98953.06;6203409;23;20100;-83
2022/06/09 03:53:53;;;;;;;13.43;9.82;;;;;;;16.49;100.00;98952.59;6179169;23;20459;-83
2022/06/09 03:56:20;;;;;;;10.48;9.38;;;;;;;16.53;100.00;98953.13;6180280;23;20036;-83
2022/06/09 03:58:46;;;;;;;11.23;8.95;;;;;;;16.59;100.00;98956.72;6179804;23;20074;-83
2022/06/09 04:01:13;;;;;;;10.68;9.02;;;;;;;16.64;100.00;98946.81;6177681;23;20435;-83
2022/06/09 04:03:40;;;;;;;9.82;8.93;;;;;;;16.64;100.00;98946.81;6130465;23;20023;-85
2022/06/09 04:06:08;;;;;;;11.75;9.57;;;;;;;16.62;100.00;98950.09;6154021;23;20024;-83
2022/06/09 04:08:33;;;;;;;15.73;9.88;;;;;;;16.61;100.00;98956.97;6151706;23;20391;-83
2022/06/09 04:10:59;;;;;;;10.73;9.57;;;;;;;16.55;100.00;98950.56;6204705;23;20009;-83
2022/06/09 04:13:24;;;;;;;9.90;8.98;;;;;;;16.62;100.00;98960.56;6153024;23;20009;-83
2022/06/09 04:15:50;;;;;;;10.95;9.65;;;;;;;16.55;100.00;98955.38;6155110;23;20092;-83
2022/06/09 04:18:15;;;;;;;11.45;10.35;;;;;;;16.54;100.00;98954.63;6154090;23;20001;-83
2022/06/09 04:20:41;;;;;;;10.88;9.77;;;;;;;16.59;100.00;98953.13;6204400;23;20040;-83
2022/06/09 04:23:06;;;;;;;11.23;9.68;;;;;;;16.63;100.00;98946.03;6204487;23;20443;-83
2022/06/09 04:25:43;;;;;;;12.57;10.18;;;;;;;16.62;100.00;98952.91;6131509;23;20013;-83
2022/06/09 04:28:09;;;;;;;13.57;9.50;;;;;;;16.56;100.00;98952.09;6155904;23;20152;-84
2022/06/09 04:30:34;;;;;;;11.45;9.65;;;;;;;16.63;100.00;98950.88;6180016;23;20086;-84
2022/06/09 04:33:01;;;;;;;10.65;9.65;;;;;;;16.64;100.00;98950.38;6155204;23;20032;-87
2022/06/09 04:35:27;;;;;;;11.02;9.90;;;;;;;16.68;100.00;98956.50;6178292;23;20522;-87
2022/06/09 04:38:01;;;;;;;12.65;11.18;;;;;;;16.69;100.00;98960.84;6152831;23;20010;-88
2022/06/09 04:40:29;;;;;;;10.95;9.85;;;;;;;16.71;100.00;98960.31;6178122;23;20220;-86
2022/06/09 04:42:55;;;;;;;12.50;10.00;;;;;;;16.67;100.00;98956.97;6201358;23;20055;-88
2022/06/09 04:45:22;;;;;;;12.38;9.65;;;;;;;16.71;100.00;98954.72;6204733;23;20346;-87
2022/06/09 04:47:47;;;;;;;12.18;10.00;;;;;;;16.71;100.00;98966.69;6179706;23;20075;-86
2022/06/09 04:50:15;;;;;;;11.00;9.80;;;;;;;16.75;100.00;98953.19;6179525;23;20016;-87
2022/06/09 04:52:42;;;;;;;10.98;9.88;;;;;;;16.78;100.00;98963.38;6178814;23;20370;-87
2022/06/09 04:55:08;;;;;;;11.23;10.13;;;;;;;16.90;100.00;98969.03;6202474;23;20017;-86
2022/06/09 04:57:34;;;;;;;10.70;9.35;;;;;;;16.95;100.00;98960.63;6174572;23;20017;-86
2022/06/09 05:00:00;;;;;;;10.25;9.30;;;;;;;16.91;100.00;98976.13;6150453;23;20008;-86
2022/06/09 05:02:27;;;;;;;9.85;8.98;;;;;;;16.98;100.00;98992.47;6175710;23;20503;-89
2022/06/09 05:04:53;;;;;;;9.93;8.70;;;;;;;17.01;100.00;98988.66;6125166;23;20099;-89
2022/06/09 05:07:18;;;;;;;9.70;8.68;;;;;;;17.01;100.00;98997.81;6178368;23;20089;-87
2022/06/09 05:09:44;;;;;;;11.70;9.63;;;;;;;17.01;100.00;98991.44;6203030;23;20479;-89
2022/06/09 05:12:09;;;;;;;9.77;8.77;;;;;;;17.00;100.00;98995.53;6132268;23;20021;-89
2022/06/09 05:14:35;;;;;;;16.95;15.13;;;;;;;17.09;100.00;98998.09;6182515;23;20013;-90
2022/06/09 05:17:01;;;;;;;18.83;16.80;;;;;;;17.11;100.00;98999.09;6182691;23;20439;-89
2022/06/09 05:19:26;;;;;;;13.45;11.55;;;;;;;17.13;100.00;98995.81;6207870;23;20835;-89
2022/06/09 05:21:52;;;;;;;11.85;10.70;;;;;;;17.16;100.00;98997.59;6204164;23;20143;-89
2022/06/09 05:24:18;;;;;;;10.75;9.75;;;;;;;17.13;100.00;98993.00;6200589;23;20051;-88
2022/06/09 05:26:43;;;;;;;11.68;9.57;;;;;;;17.09;100.00;98992.50;6155516;23;20108;-90
2022/06/09 05:29:09;;;;;;;11.25;10.15;;;;;;;17.12;100.00;98991.47;6205609;23;20005;-89
2022/06/09 05:31:34;;;;;;;11.05;9.93;;;;;;;17.16;100.00;98991.97;6155339;23;20013;-90
2022/06/09 05:34:00;;;;;;;11.25;9.38;;;;;;;17.15;100.00;98996.81;6178534;23;20043;-88
2022/06/09 05:36:25;;;;;;;10.02;9.13;;;;;;;17.24;100.00;98995.81;6155595;23;20096;-89
2022/06/09 05:47:03;;;;;;;12.40;8.18;;;;;;;17.25;100.00;99016.97;6182377;23;20013;-83
2022/06/09 05:49:30;;;;;;;9.50;8.27;;;;;;;17.25;100.00;99023.34;6178550;23;20075;-88
2022/06/09 05:51:57;;;;;;;8.93;7.88;;;;;;;17.26;100.00;99029.72;6204679;23;20044;-89
2022/06/09 05:54:22;;;;;;;11.57;8.10;;;;;;;17.21;100.00;99017.22;6153975;23;20135;-89
2022/06/09 05:56:48;;;;;;;8.25;7.45;;;;;;;17.21;100.00;99027.66;6203507;23;20033;-89
2022/06/09 05:59:14;;;;;;;8.27;7.38;;;;;;;17.18;100.00;99028.69;6175471;23;20044;-89
2022/06/09 06:01:40;;;;;;;9.35;7.68;;;;;;;17.10;100.00;99030.44;6177259;23;20522;-88
2022/06/09 06:04:07;;;;;;;9.15;7.30;;;;;;;17.13;100.00;99037.84;6162178;22;20016;-88
2022/06/09 06:06:35;;;;;;;11.68;7.90;;;;;;;17.10;100.00;99033.25;6188980;23;20027;-88
2022/06/09 06:09:10;;;;;;;8.38;7.45;;;;;;;17.14;100.00;99040.16;6188144;23;20012;-88
2022/06/09 06:11:37;;;;;;;7.45;6.35;;;;;;;17.15;100.00;99036.06;6190671;23;20008;-88
2022/06/09 06:14:03;;;;;;;7.82;6.45;;;;;;;17.16;100.00;99036.81;6189544;22;20010;-88
2022/06/09 06:16:29;;;;;;;8.57;6.60;;;;;;;17.12;100.00;99030.69;6215708;22;20074;-88
2022/06/09 06:18:54;;;;;;;6.93;5.70;;;;;;;17.15;100.00;99038.09;6190759;23;20536;-88
2022/06/09 06:21:20;;;;;;;8.43;5.70;;;;;;;17.13;100.00;99043.44;6189690;22;20457;-89
2022/06/09 06:23:46;;;;;;;8.27;5.50;;;;;;;17.20;100.00;99040.13;6189677;23;20085;-84
2022/06/09 06:26:12;;;;;;;6.35;5.68;;;;;;;17.15;100.00;99035.28;6188735;23;20007;-84
2022/06/09 06:28:38;;;;;;;7.53;5.32;;;;;;;17.10;100.00;99027.66;6190822;23;20068;-84
2022/06/09 06:31:04;;;;;;;7.15;5.47;;;;;;;17.12;100.00;99036.31;6215276;23;20385;-84
2022/06/09 06:33:29;;;;;;;6.38;5.00;;;;;;;17.02;100.00;99032.22;6190626;23;20015;-84
2022/06/09 06:35:55;;;;;;;7.40;5.07;;;;;;;16.94;100.00;99047.97;6165420;23;20023;-84
2022/06/09 06:38:21;;;;;;;8.95;5.45;;;;;;;16.91;100.00;99051.75;6212082;23;20144;-84
2022/06/09 06:40:46;;;;;;;5.82;5.22;;;;;;;16.82;100.00;99049.97;6215869;23;20008;-84
2022/06/09 06:43:12;;;;;;;10.95;5.90;;;;;;;16.70;100.00;99051.19;6191834;23;20114;-84
2022/06/09 06:45:39;;;;;;;7.07;5.55;;;;;;;16.56;100.00;99064.06;6215615;23;20004;-83
2022/06/09 06:48:05;;;;;;;9.27;5.32;;;;;;;16.54;100.00;99063.78;6217287;23;20058;-82
2022/06/09 06:50:31;;;;;;;6.15;4.13;;;;;;;16.34;100.00;99052.75;6192693;23;20012;-83
2022/06/09 06:52:56;;;;;;;10.18;4.45;;;;;;;16.16;100.00;99047.56;6216674;23;20456;-83
2022/06/09 06:55:23;;;;;;;7.45;4.60;;;;;;;16.07;100.00;99054.09;6192248;23;20008;-83
2022/06/09 06:57:48;;;;;;;5.38;4.13;;;;;;;15.88;100.00;99049.38;6167250;23;20075;-82
2022/06/09 07:00:18;;;;;;;5.38;3.65;;;;;;;15.78;100.00;99046.00;6166208;23;20035;-82
2022/06/09 07:02:45;;;;;;;4.97;3.53;;;;;;;15.70;100.00;99061.69;6192115;23;20012;-83
2022/06/09 07:05:10;;;;;;;7.72;3.90;;;;;;;15.65;100.00;99054.03;6191979;23;20134;-83
2022/06/09 07:07:36;;;;;;;4.82;3.63;;;;;;;15.67;100.00;99060.66;6191925;23;20043;-83
2022/06/09 07:10:03;;;;;;;5.75;3.80;;;;;;;15.68;100.00;99058.63;6216805;23;20012;-82
2022/06/09 07:12:30;;;;;;;5.18;4.18;;;;;;;15.71;100.00;99074.41;6192028;23;20028;-83
2022/06/09 07:14:56;;;;;;;5.50;4.03;;;;;;;15.70;100.00;99073.66;6191367;23;20631;-83
2022/06/09 07:17:21;;;;;;;4.65;4.03;;;;;;;15.70;100.00;99073.66;6166940;23;20007;-83
2022/06/09 07:19:47;;;;;;;8.48;3.70;;;;;;;15.76;100.00;99070.91;6191863;23;20384;-84
2022/06/09 07:22:12;;;;;;;4.55;3.92;;;;;;;15.74;100.00;99079.78;6222152;23;20000;-95
2022/06/09 07:24:38;;;;;;;4.63;3.50;;;;;;;15.71;100.00;99069.59;6225498;23;20489;-94
2022/06/09 07:27:04;;;;;;;4.40;3.20;;;;;;;15.71;100.00;99069.59;6226209;23;20086;-96
2022/06/09 07:29:29;;;;;;;5.35;3.22;;;;;;;15.74;100.00;99076.97;6225893;23;20039;-96
2022/06/09 07:31:55;;;;;;;4.18;3.65;;;;;;;15.79;100.00;99081.09;6227174;23;20004;-95
2022/06/09 07:34:21;;;;;;;3.65;3.30;;;;;;;15.79;100.00;99081.88;6202306;23;20012;-96
2022/06/09 07:36:47;;;;;;;6.75;3.47;;;;;;;15.79;100.00;99075.50;6203893;23;19984;-95
2022/06/09 07:39:13;;;;;;;6.00;3.00;;;;;;;15.75;100.00;99069.38;6180461;23;20336;-96
2022/06/09 07:41:38;;;;;;;4.93;3.30;;;;;;;15.79;100.00;99064.31;6195519;23;20012;-83
2022/06/09 07:44:07;;;;;;;3.67;3.00;;;;;;;15.81;100.00;99079.31;6215572;23;20019;-84
2022/06/09 07:46:33;;;;;;;4.53;3.13;;;;;;;15.81;100.00;99084.91;6216588;23;20057;-84
2022/06/09 07:48:58;;;;;;;7.32;3.50;;;;;;;15.78;100.00;99083.13;6216397;23;20427;-83
2022/06/09 07:51:25;;;;;;;5.45;3.47;;;;;;;15.83;100.00;99082.41;6191520;23;20011;-83
2022/06/09 07:53:51;;;;;;;7.50;3.78;;;;;;;15.85;100.00;99093.84;6166582;23;20012;-83
2022/06/09 07:56:17;;;;;;;4.30;3.50;;;;;;;15.89;100.00;99095.69;6191009;23;20072;-83
2022/06/09 07:58:43;;;;;;;4.13;3.20;;;;;;;15.92;100.00;99086.28;6190726;23;20410;-83
2022/06/09 08:01:10;;;;;;;4.40;4.00;;;;;;;16.02;100.00;99087.63;6193022;23;20044;-84
2022/06/09 08:03:39;;;;;;;4.38;3.80;;;;;;;16.15;100.00;99093.56;6191419;23;20019;-83
2022/06/09 08:06:05;;;;;;;4.95;3.83;;;;;;;16.27;100.00;99098.00;6192230;23;20599;-84
2022/06/09 08:08:30;;;;;;;5.18;3.88;;;;;;;16.29;100.00;99089.88;6166538;23;20001;-83
2022/06/09 08:10:56;;;;;;;5.68;3.80;;;;;;;16.24;100.00;99087.81;6191674;23;20012;-83
2022/06/09 08:13:22;;;;;;;5.45;3.80;;;;;;;16.30;100.00;99091.38;6215588;23;20066;-84
2022/06/09 08:15:48;;;;;;;4.45;3.70;;;;;;;16.43;100.00;99086.13;6216801;23;20044;-84
2022/06/09 08:18:13;;;;;;;6.53;3.30;;;;;;;16.44;100.00;99082.06;6216383;23;20066;-84
2022/06/09 08:20:41;;;;;;;4.68;3.83;;;;;;;16.49;100.00;99086.19;6197420;23;20509;-95
2022/06/09 08:23:11;;;;;;;4.18;3.35;;;;;;;16.41;100.00;99079.50;6194133;23;20058;-94
2022/06/09 08:25:38;;;;;;;4.60;3.10;;;;;;;16.38;100.00;99081.25;6195248;23;20538;-94
2022/06/09 08:28:04;;;;;;;4.13;3.33;;;;;;;16.39;100.00;99070.84;6219491;23;20058;-94
2022/06/09 08:30:31;;;;;;;4.25;2.88;;;;;;;16.42;100.00;99073.41;6194319;23;20054;-93
2022/06/09 08:32:59;;;;;;;3.13;2.80;;;;;;;16.42;100.00;99070.59;6217318;23;20004;-93
2022/06/09 08:35:25;;;;;;;6.50;2.67;;;;;;;16.36;100.00;99072.63;6192701;23;20019;-92
2022/06/09 08:37:51;;;;;;;3.00;2.50;;;;;;;16.40;100.00;99073.16;6192259;23;20008;-93
2022/06/09 08:40:46;;;;;;;4.88;3.03;;;;;;;16.48;100.00;99065.03;6217452;23;20016;-94
2022/06/09 08:43:36;;;;;;;3.33;2.80;;;;;;;16.61;100.00;99076.59;6206732;23;20016;-94
2022/06/09 08:46:37;;;;;;;4.43;2.90;;;;;;;16.68;100.00;99062.91;6216562;23;20069;-93
2022/06/09 08:49:03;;;;;;;4.38;2.78;;;;;;;16.78;100.00;99064.19;6195459;23;20016;-92
2022/06/09 08:51:38;;;;;;;4.25;2.70;;;;;;;16.89;100.00;99073.94;6167329;23;20430;-93
2022/06/09 08:54:11;;;;;;;6.30;3.08;;;;;;;16.92;100.00;99079.28;6216383;23;20081;-93
2022/06/09 08:56:37;;;;;;;5.13;3.00;;;;;;;16.97;100.00;99074.97;6192439;23;20032;-84
2022/06/09 08:59:13;;;;;;;4.18;3.10;;;;;;;17.00;100.00;99079.56;6190060;23;20090;-84
2022/06/09 09:01:51;;;;;;;4.70;2.95;;;;;;;17.05;100.00;99076.03;6192480;23;20016;-84
2022/06/09 09:04:21;;;;;;;3.72;2.80;;;;;;;17.05;100.00;99059.22;6166069;23;20024;-84
2022/06/09 09:06:56;;;;;;;4.20;2.70;;;;;;;17.09;100.00;99070.94;6191498;23;20040;-84
2022/06/09 09:09:24;;;;;;;5.32;3.00;;;;;;;17.16;100.00;99064.84;6216293;23;20019;-83
2022/06/09 09:12:07;;;;;;;3.63;2.53;;;;;;;17.09;100.00;99070.94;6166884;23;20062;-84
2022/06/09 09:14:38;;;;;;;4.75;2.60;;;;;;;17.10;100.00;99078.09;6215708;23;20020;-84
2022/06/09 09:17:18;;;;;;;3.35;2.50;;;;;;;17.10;100.00;99066.88;6216999;23;20027;-84
2022/06/09 09:20:00;;;;;;;2.75;2.40;;;;;;;17.03;100.00;99068.09;6191323;23;20083;-84
2022/06/09 09:22:53;;;;;;;3.60;2.45;;;;;;;17.00;100.00;99073.97;6216685;23;20016;-84
2022/06/09 09:25:27;;;;;;;4.10;2.30;;;;;;;16.99;100.00;99078.03;6242798;23;20016;-84
2022/06/09 09:28:15;;;;;;;3.70;2.63;;;;;;;16.96;100.00;99087.44;6165452;23;20023;-84
2022/06/09 09:30:51;;;;;;;3.30;2.75;;;;;;;16.92;100.00;99093.28;6242833;23;20526;-83
2022/06/09 09:33:19;;;;;;;3.65;2.40;;;;;;;16.87;100.00;99087.66;6242694;23;20061;-84
2022/06/09 09:35:46;;;;;;;6.10;2.80;;;;;;;16.89;100.00;99091.50;6216374;23;20011;-84
2022/06/09 09:38:15;;;;;;;2.60;2.30;;;;;;;16.89;100.00;99093.53;6191340;23;20009;-93
2022/06/09 09:40:47;;;;;;;3.28;2.33;;;;;;;16.87;100.00;99104.47;6217210;23;20015;-92
2022/06/09 09:43:16;;;;;;;3.25;2.58;;;;;;;16.89;100.00;99099.13;6191540;23;20013;-92
2022/06/09 09:45:45;;;;;;;4.50;2.58;;;;;;;16.96;100.00;99090.25;6191976;23;20000;-92
2022/06/09 09:48:17;;;;;;;2.92;2.40;;;;;;;17.09;100.00;99082.91;6191279;23;20008;-93
2022/06/09 09:50:48;;;;;;;3.42;2.63;;;;;;;17.10;100.00;99084.47;6216720;23;20016;-93
2022/06/09 09:53:17;;;;;;;3.88;2.78;;;;;;;17.30;100.00;99085.53;6191257;23;20087;-92
2022/06/09 09:55:54;;;;;;;3.97;2.30;;;;;;;17.36;100.00;99095.47;6243301;23;20011;-93
2022/06/09 09:58:32;;;;;;;3.83;2.47;;;;;;;17.92;100.00;99101.16;6243577;23;20012;-92
2022/06/09 10:01:25;;;;;;;3.33;2.50;;;;;;;18.70;100.00;99106.72;6193408;23;20020;-92
2022/06/09 10:09:42;;;;;;;3.78;2.17;;;;;;;19.34;100.00;99117.44;6196773;23;20346;-93
2022/06/09 10:12:11;;;;;;;4.35;2.13;;;;;;;19.63;100.00;99099.16;6217840;23;20012;-92
2022/06/09 10:15:04;;;;;;;5.38;3.03;;;;;;;19.47;100.00;99106.41;6244045;23;20069;-91
2022/06/09 10:17:54;;;;;;;2.58;2.10;;;;;;;19.25;100.00;99089.63;6244513;23;20016;-93
2022/06/09 10:20:43;;;;;;;3.10;2.03;;;;;;;18.99;100.00;99094.88;6217426;23;20073;-91
2022/06/09 10:23:18;;;;;;;3.75;2.65;;;;;;;18.82;100.00;99102.59;6192834;23;20092;-92
2022/06/09 10:26:07;;;;;;;4.32;3.10;;;;;;;18.89;100.00;99099.25;6244374;23;20012;-92
2022/06/09 10:28:35;;;;;;;4.63;3.20;;;;;;;18.88;100.00;99101.31;6167142;23;20094;-92
2022/06/09 10:31:39;;;;;;;3.42;2.30;;;;;;;19.03;100.00;99101.75;6217509;23;20540;-90
2022/06/09 10:34:33;;;;;;;3.63;2.75;;;;;;;19.24;100.00;99105.00;6217357;23;20012;-84
2022/06/09 10:37:25;;;;;;;4.60;2.67;;;;;;;19.53;100.00;99098.69;6217778;23;20031;-84
2022/06/09 10:40:15;;;;;;;4.10;2.47;;;;;;;19.98;100.00;99098.38;6244146;23;20020;-84
2022/06/09 10:43:02;;;;;;;5.05;2.20;;;;;;;20.10;100.00;99105.44;6191949;23;20638;-84
2022/06/09 10:45:53;;;;;;;5.18;2.45;;;;;;;20.18;99.59;99106.41;6216935;23;20019;-84
2022/06/09 10:57:30;;;;;;;4.15;2.38;;;;;;;19.66;100.00;99097.34;6215541;23;20016;-89
2022/06/09 10:59:57;;;;;;;4.13;2.80;;;;;;;19.56;99.87;99108.16;6215557;23;20031;-90
2022/06/09 11:02:25;;;;;;;3.65;2.50;;;;;;;19.39;100.00;99099.78;6215549;23;20349;-89
2022/06/09 11:04:52;;;;;;;3.80;2.58;;;;;;;19.41;100.00;99090.84;6190538;23;20012;-90
2022/06/09 11:07:47;;;;;;;3.60;2.60;;;;;;;19.54;99.72;99076.97;6190319;23;20039;-90
2022/06/09 11:10:26;;;;;;;4.07;2.53;;;;;;;19.64;97.29;99081.00;6215541;23;20012;-84
2022/06/09 11:13:25;;;;;;;4.40;2.25;;;;;;;19.90;97.60;99080.53;6190430;23;20023;-84
2022/06/09 11:15:57;;;;;;;2.65;2.03;;;;;;;20.18;96.35;99072.59;6241900;23;20165;-83
2022/06/09 11:18:35;;;;;;;3.13;2.10;;;;;;;20.58;95.67;99058.94;6188320;23;20102;-84
2022/06/09 11:21:06;;;;;;;2.90;2.20;;;;;;;21.07;93.02;99063.19;6189867;23;20008;-84
2022/06/09 11:23:55;;;;;;;5.25;2.20;;;;;;;21.26;92.29;99072.47;6215551;23;20012;-84
2022/06/09 11:27:05;;;;;;;3.45;2.20;;;;;;;21.08;89.34;99080.88;6203029;23;20073;-86
2022/06/09 11:29:54;;;;;;;3.92;2.35;;;;;;;21.28;89.65;99095.22;6192877;22;20020;-90
2022/06/09 11:32:24;;;;;;;3.10;2.20;;;;;;;21.76;87.46;99074.53;6213102;23;20446;-88
2022/06/09 11:35:10;;;;;;;3.13;1.98;;;;;;;21.50;88.18;99063.13;6214542;23;20016;-86
2022/06/09 11:38:12;;;;;;;3.70;2.28;;;;;;;21.35;90.04;99063.59;6216067;23;20086;-88
2022/06/09 11:40:48;;;;;;;3.58;2.10;;;;;;;21.14;88.00;99070.31;6138173;23;20168;-89
2022/06/09 11:43:21;;;;;;;3.55;2.40;;;;;;;20.78;88.79;99078.16;6190579;23;20020;-89
2022/06/09 11:46:00;;;;;;;4.97;2.13;;;;;;;20.63;90.61;99080.63;6215830;23;20360;-88
2022/06/09 11:48:40;;;;;;;3.80;2.20;;;;;;;20.69;90.95;99078.53;6216046;23;20023;-89
2022/06/09 11:51:07;;;;;;;5.03;2.40;;;;;;;20.52;90.51;99069.50;6190726;23;20146;-84
2022/06/09 11:53:38;;;;;;;5.65;2.20;;;;;;;20.67;92.16;99073.41;6190359;23;20170;-84
2022/06/09 11:56:33;;;;;;;3.83;2.40;;;;;;;20.54;90.85;99070.50;6189999;23;20070;-84
2022/06/09 11:59:23;;;;;;;3.08;2.10;;;;;;;20.55;92.49;99076.88;6242212;23;20013;-84